Time;durP1;ratioP1;P1;durP2;ratioP2;P2;SDS_P1;SDS_P2;PMS_P1;PMS_P2;Temp;Humidity;BMP_temperature;BMP_pressure;BME280_temperature;BME280_humidity;BME280_pressure;Samples;Min_cycle;Max_cycle;Signal;HPM_P1;HPM_P2
2021/05/10 00:00:54;;;;;;;17.65;8.32;;;18.90;76.40;;;;;;5087921;28;20023;-80
2021/05/10 00:03:22;;;;;;;14.43;7.15;;;18.90;76.50;;;;;;5089344;28;20017;-81
2021/05/10 00:05:51;;;;;;;19.48;7.22;;;18.90;76.50;;;;;;5086645;28;20039;-80
2021/05/10 00:08:19;;;;;;;12.13;7.28;;;18.80;76.50;;;;;;5085921;28;20349;-80
2021/05/10 00:10:45;;;;;;;16.27;8.55;;;18.80;76.50;;;;;;5083971;28;20052;-79
2021/05/10 00:13:15;;;;;;;17.17;7.18;;;18.80;76.50;;;;;;5086265;28;20032;-79
2021/05/10 00:15:41;;;;;;;13.48;7.60;;;18.80;76.50;;;;;;5088863;28;20038;-78
2021/05/10 00:18:08;;;;;;;18.98;7.20;;;18.80;76.50;;;;;;5087160;28;20028;-79
2021/05/10 00:20:36;;;;;;;15.07;7.47;;;18.80;76.50;;;;;;5089028;28;20103;-79
2021/05/10 00:23:04;;;;;;;17.63;7.95;;;18.80;76.40;;;;;;5088257;28;20024;-80
2021/05/10 00:25:31;;;;;;;13.65;6.75;;;18.80;76.30;;;;;;5087844;28;20035;-79
2021/05/10 00:27:57;;;;;;;15.88;7.30;;;18.70;76.30;;;;;;5087914;28;20169;-79
2021/05/10 00:30:25;;;;;;;12.45;7.43;;;18.70;76.20;;;;;;5087095;28;20070;-80
2021/05/10 00:32:52;;;;;;;9.82;6.50;;;18.70;76.20;;;;;;5087291;28;20032;-80
2021/05/10 00:35:22;;;;;;;14.27;6.95;;;18.70;76.20;;;;;;5080251;28;20397;-77
2021/05/10 00:37:49;;;;;;;13.82;6.55;;;18.70;76.20;;;;;;5084063;28;20023;-80
2021/05/10 00:40:17;;;;;;;10.68;6.97;;;18.70;76.30;;;;;;5087668;28;20024;-80
2021/05/10 00:42:44;;;;;;;9.45;6.05;;;18.60;76.10;;;;;;5086206;28;20089;-79
2021/05/10 00:45:11;;;;;;;12.05;5.93;;;18.70;76.10;;;;;;5088630;28;20035;-80
2021/05/10 00:47:38;;;;;;;13.25;6.57;;;18.70;76.10;;;;;;5077440;28;20040;-79
2021/05/10 00:50:07;;;;;;;10.30;6.13;;;18.60;75.90;;;;;;5086078;28;20024;-80
2021/05/10 00:52:34;;;;;;;13.93;6.72;;;18.60;75.90;;;;;;5084923;28;20031;-77
2021/05/10 00:55:01;;;;;;;11.65;5.75;;;18.60;75.90;;;;;;5084342;28;20020;-78
2021/05/10 00:57:32;;;;;;;14.52;6.13;;;18.60;75.80;;;;;;5081002;28;20910;-79
2021/05/10 01:00:00;;;;;;;9.98;5.80;;;18.60;75.70;;;;;;5082937;28;20028;-79
2021/05/10 01:02:27;;;;;;;12.38;5.80;;;18.60;75.70;;;;;;5084377;28;20055;-79
2021/05/10 01:04:53;;;;;;;14.25;6.20;;;18.50;75.60;;;;;;5082122;28;20773;-79
2021/05/10 01:07:20;;;;;;;11.90;5.88;;;18.50;75.70;;;;;;5085007;28;20017;-77
2021/05/10 01:09:47;;;;;;;14.38;6.05;;;18.50;75.70;;;;;;5081362;28;20032;-80
2021/05/10 01:12:13;;;;;;;9.93;6.60;;;18.50;75.70;;;;;;5084142;28;20028;-80
2021/05/10 01:14:40;;;;;;;6.90;4.65;;;18.50;75.70;;;;;;5084721;28;20021;-80
2021/05/10 01:17:06;;;;;;;12.73;5.13;;;18.50;75.60;;;;;;5085607;28;20024;-80
2021/05/10 01:19:35;;;;;;;12.75;6.47;;;18.50;75.60;;;;;;5087339;28;20034;-75
2021/05/10 01:22:05;;;;;;;12.32;5.63;;;18.50;75.60;;;;;;5084325;28;20449;-79
2021/05/10 01:24:31;;;;;;;10.88;4.35;;;18.40;75.60;;;;;;5087941;28;20035;-79
2021/05/10 01:26:58;;;;;;;7.82;4.47;;;18.40;75.60;;;;;;5084259;28;20065;-77
2021/05/10 01:29:25;;;;;;;5.68;4.60;;;18.40;75.60;;;;;;5088494;28;20028;-78
2021/05/10 01:31:51;;;;;;;9.15;4.25;;;18.40;75.60;;;;;;5085695;28;20117;-79
2021/05/10 01:34:18;;;;;;;8.65;4.20;;;18.40;75.70;;;;;;5085457;28;20070;-79
2021/05/10 01:36:44;;;;;;;7.70;4.38;;;18.40;75.60;;;;;;5087353;28;20481;-80
2021/05/10 01:39:11;;;;;;;10.98;5.32;;;18.40;75.70;;;;;;5087668;28;20407;-80
2021/05/10 01:41:38;;;;;;;5.43;3.33;;;18.40;75.60;;;;;;5087099;28;20381;-80
2021/05/10 01:44:04;;;;;;;8.05;4.07;;;18.40;75.60;;;;;;5086087;28;20455;-80
2021/05/10 01:46:31;;;;;;;7.82;4.22;;;18.30;75.60;;;;;;5089716;28;20020;-78
2021/05/10 01:48:57;;;;;;;10.05;3.83;;;18.30;75.60;;;;;;5090189;28;20012;-79
2021/05/10 01:51:25;;;;;;;6.13;4.25;;;18.40;75.60;;;;;;5091255;28;20026;-79
2021/05/10 01:53:52;;;;;;;8.75;3.80;;;18.30;75.50;;;;;;5090420;28;20510;-78
2021/05/10 01:56:19;;;;;;;8.63;3.88;;;18.30;75.60;;;;;;5090992;28;20108;-79
2021/05/10 01:58:53;;;;;;;5.63;3.60;;;18.30;75.50;;;;;;5091165;28;20374;-80
2021/05/10 02:01:22;;;;;;;5.80;3.33;;;18.30;75.50;;;;;;5087290;28;20031;-79
2021/05/10 02:03:49;;;;;;;5.68;3.40;;;18.30;75.50;;;;;;5089378;28;20086;-79
2021/05/10 02:06:15;;;;;;;7.85;3.88;;;18.30;75.50;;;;;;5089805;28;20048;-80
2021/05/10 02:08:44;;;;;;;6.00;3.40;;;18.30;75.50;;;;;;5090058;28;20035;-77
2021/05/10 02:11:10;;;;;;;8.88;3.72;;;18.20;75.40;;;;;;5087161;28;20398;-79
2021/05/10 02:13:37;;;;;;;8.23;4.80;;;18.20;75.40;;;;;;5089451;28;20012;-80
2021/05/10 02:16:04;;;;;;;5.47;3.33;;;18.20;75.30;;;;;;5093665;28;20375;-80
2021/05/10 02:18:34;;;;;;;8.38;3.72;;;18.20;75.30;;;;;;5089876;28;20541;-80
2021/05/10 02:21:01;;;;;;;6.68;3.17;;;18.20;75.30;;;;;;5088698;28;20013;-79
2021/05/10 02:23:37;;;;;;;6.20;3.50;;;18.20;75.20;;;;;;5089280;28;20023;-82
2021/05/10 02:26:06;;;;;;;5.22;3.60;;;18.20;75.10;;;;;;5088491;28;20032;-79
2021/05/10 02:28:33;;;;;;;5.15;3.28;;;18.20;75.00;;;;;;5087571;28;20032;-79
2021/05/10 02:31:02;;;;;;;4.63;2.80;;;18.10;74.80;;;;;;5088902;28;20044;-77
2021/05/10 02:33:31;;;;;;;6.25;3.05;;;18.10;74.80;;;;;;5088505;28;20103;-81
2021/05/10 02:35:58;;;;;;;4.43;3.20;;;18.10;74.80;;;;;;5086407;28;20375;-79
2021/05/10 02:38:26;;;;;;;6.13;3.25;;;18.10;74.80;;;;;;5090173;28;20528;-78
2021/05/10 02:40:53;;;;;;;5.88;3.28;;;18.10;74.80;;;;;;5089162;28;20514;-80
2021/05/10 02:43:21;;;;;;;5.28;3.33;;;18.10;74.80;;;;;;5089145;28;20020;-80
2021/05/10 02:45:49;;;;;;;6.28;2.95;;;18.10;74.80;;;;;;5088541;28;20023;-78
2021/05/10 02:48:15;;;;;;;6.32;3.35;;;18.00;74.80;;;;;;5089407;28;20055;-78
2021/05/10 02:50:42;;;;;;;9.32;5.85;;;18.10;74.80;;;;;;5088773;28;20032;-79
2021/05/10 02:53:09;;;;;;;8.90;7.25;;;18.00;74.70;;;;;;5089267;28;20024;-80
2021/05/10 02:55:36;;;;;;;11.57;7.70;;;18.10;74.80;;;;;;5089116;28;20020;-77
2021/05/10 02:58:03;;;;;;;6.20;4.65;;;18.00;74.70;;;;;;5089271;28;20017;-75
2021/05/10 03:00:30;;;;;;;6.38;4.00;;;18.00;74.70;;;;;;5090187;28;20016;-79
2021/05/10 03:02:56;;;;;;;4.28;3.05;;;18.00;74.80;;;;;;5088769;28;20035;-79
2021/05/10 03:05:25;;;;;;;6.43;3.10;;;18.00;74.80;;;;;;5088221;28;20036;-78
2021/05/10 03:07:52;;;;;;;8.00;3.90;;;18.00;74.80;;;;;;5086579;28;20031;-79
2021/05/10 03:10:20;;;;;;;5.25;3.65;;;18.00;74.70;;;;;;5084329;28;20038;-80
2021/05/10 03:12:47;;;;;;;5.30;3.15;;;17.90;74.70;;;;;;5089044;28;20383;-79
2021/05/10 03:15:16;;;;;;;6.82;3.90;;;18.00;74.70;;;;;;5088972;28;20027;-79
2021/05/10 03:17:43;;;;;;;5.22;3.38;;;18.00;74.70;;;;;;5086301;28;20032;-80
2021/05/10 03:20:15;;;;;;;4.97;2.80;;;17.90;74.70;;;;;;5088481;28;20027;-80
2021/05/10 03:22:42;;;;;;;4.70;3.72;;;17.90;74.70;;;;;;5085859;28;20110;-78
2021/05/10 03:25:11;;;;;;;6.78;4.03;;;17.90;74.70;;;;;;5087728;28;20487;-79
2021/05/10 03:27:39;;;;;;;4.78;3.25;;;17.90;75.00;;;;;;5087172;28;20031;-79
2021/05/10 03:30:23;;;;;;;4.15;2.90;;;17.90;74.70;;;;;;5087921;28;20024;-81
2021/05/10 03:32:50;;;;;;;6.40;2.95;;;17.90;74.80;;;;;;5084347;28;20399;-80
2021/05/10 03:35:18;;;;;;;7.45;3.15;;;17.90;74.80;;;;;;5087094;28;20028;-80
2021/05/10 03:37:45;;;;;;;5.60;3.15;;;17.90;74.80;;;;;;5086564;28;20050;-81
2021/05/10 03:40:14;;;;;;;3.83;2.50;;;17.80;74.80;;;;;;5088150;28;20402;-79
2021/05/10 03:42:42;;;;;;;4.35;2.42;;;17.80;74.80;;;;;;5089180;28;20012;-80
2021/05/10 03:45:12;;;;;;;7.85;2.72;;;17.90;74.70;;;;;;5088306;28;20024;-78
2021/05/10 03:47:40;;;;;;;5.43;2.55;;;17.80;74.60;;;;;;5086885;28;20093;-78
2021/05/10 03:50:11;;;;;;;4.80;2.28;;;17.80;74.60;;;;;;5086518;28;20073;-78
2021/05/10 03:52:39;;;;;;;3.70;2.53;;;17.80;74.70;;;;;;5088996;28;20479;-79
2021/05/10 03:55:07;;;;;;;5.40;2.60;;;17.80;74.60;;;;;;5070860;28;20021;-79
2021/05/10 03:57:33;;;;;;;5.28;2.53;;;17.80;74.50;;;;;;5085968;28;20077;-81
2021/05/10 04:00:00;;;;;;;4.72;2.53;;;17.80;74.40;;;;;;5087790;28;20024;-74
2021/05/10 04:03:07;;;;;;;4.53;2.60;;;17.80;74.40;;;;;;5085896;28;20397;-74
2021/05/10 04:10:03;;;;;;;8.80;3.00;;;17.80;74.30;;;;;;5089172;28;20027;-73
2021/05/10 04:16:36;;;;;;;13.80;11.77;;;17.70;74.30;;;;;;5087553;28;20077;-76
2021/05/10 04:19:43;;;;;;;13.75;9.00;;;17.80;74.30;;;;;;5081549;28;20043;-80
2021/05/10 04:22:29;;;;;;;;;;;17.80;74.30;;;;;;5083843;28;20691;-75
2021/05/10 04:25:35;;;;;;;7.53;4.53;;;17.70;74.20;;;;;;5083613;28;20374;-80
2021/05/10 04:28:41;;;;;;;18.17;11.52;;;17.70;74.20;;;;;;5084550;28;20016;-83
2021/05/10 04:31:48;;;;;;;17.70;14.65;;;17.70;74.30;;;;;;5082390;28;20040;-76
2021/05/10 04:34:34;;;;;;;;;;;17.70;74.50;;;;;;5084963;28;20027;-83
2021/05/10 04:37:41;;;;;;;9.98;6.90;;;17.70;74.60;;;;;;5086414;28;19915;-75
2021/05/10 04:41:03;;;;;;;7.93;5.63;;;17.80;75.10;;;;;;5086086;28;20092;-76
2021/05/10 04:44:10;;;;;;;9.30;4.82;;;17.80;75.50;;;;;;5086005;28;20036;-73
2021/05/10 04:46:38;;;;;;;13.25;4.95;;;17.80;75.90;;;;;;5084484;28;20031;-72
2021/05/10 04:49:04;;;;;;;10.95;5.15;;;17.80;76.40;;;;;;5088992;28;20023;-84
2021/05/10 04:51:31;;;;;;;14.45;5.97;;;17.80;76.80;;;;;;5082316;28;20024;-79
2021/05/10 04:53:57;;;;;;;18.15;6.45;;;17.80;77.20;;;;;;5086393;28;20027;-72
2021/05/10 04:56:24;;;;;;;18.90;6.70;;;17.80;77.60;;;;;;5086966;28;20024;-83
2021/05/10 04:58:50;;;;;;;16.17;5.70;;;17.80;78.00;;;;;;5085587;28;20031;-79
2021/05/10 05:01:17;;;;;;;18.88;7.40;;;17.80;78.30;;;;;;5086357;28;20138;-79
2021/05/10 05:03:43;;;;;;;16.52;7.28;;;17.90;78.60;;;;;;5087020;28;20522;-81
2021/05/10 05:06:10;;;;;;;17.45;7.70;;;17.90;79.10;;;;;;5088269;28;20420;-79
2021/05/10 05:08:36;;;;;;;17.52;6.93;;;17.80;79.30;;;;;;5086425;28;20023;-78
2021/05/10 05:11:42;;;;;;;15.65;6.25;;;17.90;79.70;;;;;;5084173;28;20460;-78
2021/05/10 05:14:48;;;;;;;13.18;6.22;;;17.90;80.10;;;;;;5085522;28;20023;-81
2021/05/10 05:17:54;;;;;;;9.48;5.07;;;17.90;80.50;;;;;;5085735;28;20024;-81
2021/05/10 05:21:00;;;;;;;11.70;6.43;;;17.90;80.80;;;;;;5088712;28;20064;-80
2021/05/10 05:24:06;;;;;;;10.55;5.05;;;17.90;81.10;;;;;;5074821;28;20539;-81
2021/05/10 05:27:12;;;;;;;10.65;4.95;;;17.90;81.30;;;;;;5089888;28;20020;-81
2021/05/10 05:30:19;;;;;;;14.20;4.75;;;17.90;81.60;;;;;;5088402;28;20065;-82
2021/05/10 05:33:25;;;;;;;8.45;3.75;;;17.90;81.70;;;;;;5072217;28;20499;-81
2021/05/10 05:36:31;;;;;;;8.52;4.75;;;17.90;82.60;;;;;;5090369;28;20089;-80
2021/05/10 05:39:37;;;;;;;10.38;4.30;;;18.00;82.10;;;;;;5089816;28;20024;-81
2021/05/10 05:42:43;;;;;;;9.98;5.47;;;17.90;82.20;;;;;;5089754;28;20058;-78
2021/05/10 05:45:49;;;;;;;8.07;5.35;;;18.00;82.40;;;;;;5086694;28;20040;-81
2021/05/10 05:48:55;;;;;;;8.82;4.30;;;17.90;82.50;;;;;;5092091;28;20027;-81
2021/05/10 05:52:01;;;;;;;8.68;4.00;;;18.00;82.70;;;;;;5089061;28;20023;-81
2021/05/10 05:55:07;;;;;;;12.25;5.18;;;18.00;82.70;;;;;;5084703;28;20077;-81
2021/05/10 05:58:13;;;;;;;7.82;3.85;;;18.00;82.80;;;;;;5086201;28;20020;-78
2021/05/10 06:01:20;;;;;;;5.85;4.18;;;18.00;82.90;;;;;;5090974;28;20024;-81
2021/05/10 06:04:27;;;;;;;10.43;4.75;;;18.00;83.00;;;;;;5073614;28;20479;-81
2021/05/10 06:07:33;;;;;;;7.93;4.45;;;18.00;83.10;;;;;;5092332;28;20095;-81
2021/05/10 06:10:39;;;;;;;6.45;4.03;;;18.00;83.20;;;;;;5090682;28;20028;-82
2021/05/10 06:13:45;;;;;;;6.95;4.18;;;18.00;83.40;;;;;;5088705;28;20028;-81
2021/05/10 06:16:51;;;;;;;11.68;5.18;;;18.00;83.40;;;;;;5083065;28;20129;-82
2021/05/10 06:19:57;;;;;;;8.45;4.95;;;18.00;83.60;;;;;;5087413;28;20410;-81
2021/05/10 06:23:03;;;;;;;8.88;4.47;;;18.10;83.70;;;;;;5087229;28;20450;-81
2021/05/10 06:26:09;;;;;;;8.07;3.72;;;18.00;83.70;;;;;;5086296;28;20079;-78
2021/05/10 06:29:15;;;;;;;6.45;4.05;;;18.00;83.70;;;;;;5087879;28;20024;-79
2021/05/10 06:32:21;;;;;;;7.05;4.35;;;18.10;83.90;;;;;;5048785;28;20079;-82
2021/05/10 06:35:27;;;;;;;5.85;3.85;;;18.10;84.10;;;;;;5052196;28;20115;-81
2021/05/10 06:38:33;;;;;;;5.47;3.85;;;18.10;84.10;;;;;;5045924;28;20033;-81
2021/05/10 06:41:40;;;;;;;5.10;3.33;;;18.10;84.20;;;;;;5039157;28;20027;-81
2021/05/10 06:44:46;;;;;;;6.13;3.20;;;18.10;84.20;;;;;;5039541;28;20060;-81
2021/05/10 06:47:53;;;;;;;2.95;2.58;;;18.10;84.20;;;;;;5036422;28;20036;-72
2021/05/10 06:50:59;;;;;;;6.18;3.10;;;18.10;84.30;;;;;;5041376;28;20028;-72
2021/05/10 06:54:05;;;;;;;3.75;2.78;;;18.20;84.40;;;;;;5038593;28;20021;-77
2021/05/10 06:57:12;;;;;;;4.10;3.08;;;18.20;84.40;;;;;;5044894;28;20074;-75
2021/05/10 06:59:43;;;;;;;3.22;2.67;;;18.20;85.10;;;;;;5048796;28;20057;-81
2021/05/10 07:02:09;;;;;;;2.95;2.35;;;18.20;84.50;;;;;;5039327;28;20108;-81
2021/05/10 07:04:36;;;;;;;2.28;2.08;;;18.20;84.60;;;;;;5045423;28;20040;-78
2021/05/10 07:07:02;;;;;;;2.47;2.28;;;18.20;84.60;;;;;;5035568;28;20018;-81
2021/05/10 07:09:29;;;;;;;3.78;3.03;;;18.20;84.70;;;;;;5035910;28;20464;-81
2021/05/10 07:11:55;;;;;;;3.15;2.83;;;18.20;84.80;;;;;;5048637;28;20190;-78
2021/05/10 07:14:22;;;;;;;3.40;3.10;;;18.20;84.90;;;;;;5050698;28;20021;-81
2021/05/10 07:16:48;;;;;;;4.32;3.30;;;18.20;85.00;;;;;;5030263;28;20026;-82
2021/05/10 07:19:15;;;;;;;5.35;3.88;;;18.20;85.00;;;;;;5044766;28;20025;-81
2021/05/10 07:21:41;;;;;;;4.65;3.80;;;18.20;85.10;;;;;;5043785;28;20142;-81
2021/05/10 07:24:08;;;;;;;4.63;3.40;;;18.30;85.30;;;;;;5050238;28;20068;-81
2021/05/10 07:26:35;;;;;;;5.10;4.20;;;18.30;85.30;;;;;;5047075;28;20028;-80
2021/05/10 07:29:02;;;;;;;4.95;3.72;;;18.30;85.40;;;;;;5047249;28;20025;-81
2021/05/10 07:31:29;;;;;;;8.15;4.70;;;18.30;85.40;;;;;;5063737;28;20040;-82
2021/05/10 07:33:55;;;;;;;7.32;5.07;;;18.30;85.50;;;;;;5079239;28;20033;-75
2021/05/10 07:36:22;;;;;;;9.68;4.43;;;18.40;85.70;;;;;;5085355;28;20032;-81
2021/05/10 07:38:49;;;;;;;9.20;5.75;;;18.40;85.80;;;;;;5086519;28;20051;-80
2021/05/10 07:41:15;;;;;;;10.32;5.32;;;18.40;85.80;;;;;;5080749;28;20039;-75
2021/05/10 07:43:42;;;;;;;8.23;6.15;;;18.40;85.70;;;;;;5084440;28;20031;-79
2021/05/10 07:46:09;;;;;;;8.10;5.45;;;18.50;85.80;;;;;;5082226;28;20103;-81
2021/05/10 07:48:35;;;;;;;9.10;5.60;;;18.40;85.70;;;;;;5084969;28;20506;-79
2021/05/10 07:51:02;;;;;;;8.73;4.68;;;18.50;85.60;;;;;;5084994;28;20020;-82
2021/05/10 07:53:29;;;;;;;6.20;3.85;;;18.50;85.60;;;;;;5063201;28;20040;-82
2021/05/10 07:55:55;;;;;;;7.13;3.63;;;18.50;85.50;;;;;;5081985;28;20505;-77
2021/05/10 07:58:23;;;;;;;6.32;3.72;;;18.60;85.50;;;;;;5083881;28;20016;-83
2021/05/10 08:00:54;;;;;;;5.20;3.58;;;18.60;85.50;;;;;;5084499;28;20538;-81
2021/05/10 08:03:22;;;;;;;5.75;3.83;;;18.60;85.40;;;;;;5081579;28;20016;-81
2021/05/10 08:05:49;;;;;;;4.18;2.63;;;18.60;85.40;;;;;;5083587;28;20047;-83
2021/05/10 08:08:17;;;;;;;5.05;2.45;;;18.60;85.30;;;;;;5083328;28;20059;-79
2021/05/10 08:10:44;;;;;;;5.20;2.72;;;18.60;85.30;;;;;;5089413;28;20046;-82
2021/05/10 08:13:11;;;;;;;4.90;2.97;;;18.60;85.30;;;;;;5078403;28;20481;-79
2021/05/10 08:15:38;;;;;;;3.60;2.20;;;18.70;85.30;;;;;;5090494;28;20020;-82
2021/05/10 08:18:05;;;;;;;3.45;2.78;;;18.70;85.30;;;;;;5086067;28;20040;-74
2021/05/10 08:20:32;;;;;;;4.10;2.42;;;18.70;85.20;;;;;;5086798;28;20300;-83
2021/05/10 08:22:59;;;;;;;3.63;2.92;;;18.80;85.20;;;;;;5086095;28;20471;-82
2021/05/10 08:25:25;;;;;;;6.65;3.50;;;18.80;85.10;;;;;;5087141;28;20040;-82
2021/05/10 08:27:52;;;;;;;5.97;4.65;;;18.80;85.00;;;;;;5088259;28;20039;-84
2021/05/10 08:30:19;;;;;;;5.47;3.95;;;18.80;84.90;;;;;;5089112;28;20499;-79
2021/05/10 08:32:45;;;;;;;8.85;4.85;;;18.90;84.90;;;;;;5085284;28;20043;-83
2021/05/10 08:35:12;;;;;;;8.07;6.35;;;18.90;84.80;;;;;;5088527;28;20008;-77
2021/05/10 08:37:38;;;;;;;6.80;6.07;;;18.90;84.80;;;;;;5087286;28;20526;-76
2021/05/10 08:40:07;;;;;;;8.05;6.25;;;18.90;84.60;;;;;;5083541;28;20103;-83
2021/05/10 08:42:33;;;;;;;9.73;7.22;;;19.00;84.60;;;;;;5089061;28;20062;-77
2021/05/10 08:45:00;;;;;;;9.98;7.13;;;18.90;84.50;;;;;;5088070;28;20678;-81
2021/05/10 08:47:37;;;;;;;11.68;6.90;;;19.00;84.80;;;;;;5089114;28;20457;-82
2021/05/10 08:50:06;;;;;;;8.20;7.30;;;19.00;84.40;;;;;;5087348;28;20016;-75
2021/05/10 08:52:35;;;;;;;8.18;6.70;;;19.00;84.40;;;;;;5085963;28;20028;-82
2021/05/10 08:55:03;;;;;;;7.50;6.60;;;19.00;84.30;;;;;;5083315;28;20037;-83
2021/05/10 08:57:29;;;;;;;10.98;8.50;;;19.00;84.20;;;;;;5086148;28;20020;-80
2021/05/10 08:59:56;;;;;;;9.60;7.22;;;19.10;84.20;;;;;;5089663;28;20032;-74
2021/05/10 09:02:33;;;;;;;9.68;8.20;;;19.10;84.10;;;;;;5083898;28;20013;-85
2021/05/10 09:05:12;;;;;;;10.43;8.55;;;19.10;84.00;;;;;;5089170;28;20032;-84
2021/05/10 09:07:38;;;;;;;10.48;9.40;;;19.10;83.90;;;;;;5089837;28;20028;-83
2021/05/10 09:10:15;;;;;;;9.23;8.32;;;19.10;83.80;;;;;;5085690;28;20012;-72
2021/05/10 09:12:49;;;;;;;11.40;8.82;;;19.20;83.80;;;;;;5088459;28;20016;-80
2021/05/10 09:15:27;;;;;;;10.60;8.23;;;19.10;83.60;;;;;;5087977;28;20027;-77
2021/05/10 09:18:09;;;;;;;10.15;7.75;;;19.20;83.50;;;;;;5088308;28;20020;-83
2021/05/10 09:20:41;;;;;;;8.65;6.60;;;19.20;83.40;;;;;;5082777;28;20035;-83
2021/05/10 09:23:11;;;;;;;8.90;7.00;;;19.30;83.40;;;;;;5083221;28;20050;-80
2021/05/10 09:25:43;;;;;;;9.23;7.53;;;19.30;83.40;;;;;;5085662;28;20510;-81
2021/05/10 09:28:25;;;;;;;9.73;7.40;;;19.30;83.30;;;;;;5088515;28;20034;-84
2021/05/10 09:30:58;;;;;;;9.38;7.93;;;19.40;83.30;;;;;;5084945;28;20056;-76
2021/05/10 09:33:27;;;;;;;9.10;7.00;;;19.40;83.10;;;;;;5087439;28;20024;-81
2021/05/10 09:35:56;;;;;;;7.30;6.63;;;19.40;83.00;;;;;;5086756;28;20020;-77
2021/05/10 09:38:27;;;;;;;7.60;6.43;;;19.50;82.90;;;;;;5088172;28;20019;-82
2021/05/10 09:41:03;;;;;;;13.20;6.35;;;19.60;82.70;;;;;;5085465;28;20055;-85
2021/05/10 09:43:35;;;;;;;9.25;6.97;;;19.60;82.50;;;;;;5085147;28;20013;-82
2021/05/10 09:46:13;;;;;;;9.45;6.90;;;19.70;82.20;;;;;;5084044;28;20471;-83
2021/05/10 09:48:42;;;;;;;8.23;6.32;;;19.80;82.00;;;;;;5086518;28;20020;-82
2021/05/10 09:51:14;;;;;;;7.35;5.45;;;19.90;81.80;;;;;;5086694;28;20023;-82
2021/05/10 09:53:42;;;;;;;6.20;5.50;;;19.90;81.50;;;;;;5083260;28;20020;-81
2021/05/10 09:56:12;;;;;;;6.75;6.15;;;20.00;81.20;;;;;;5078382;28;20009;-82
2021/05/10 09:58:44;;;;;;;7.18;5.82;;;20.10;80.90;;;;;;5078501;28;20502;-72
2021/05/10 10:01:11;;;;;;;7.38;6.60;;;20.10;80.60;;;;;;5077168;28;20471;-81
2021/05/10 10:03:41;;;;;;;6.75;6.07;;;20.10;80.20;;;;;;5083888;28;20024;-80
2021/05/10 10:06:13;;;;;;;6.78;6.18;;;20.20;80.00;;;;;;5082209;28;20421;-84
2021/05/10 10:08:42;;;;;;;7.35;6.60;;;20.30;79.80;;;;;;5073609;28;20047;-81
2021/05/10 10:11:11;;;;;;;11.27;6.10;;;20.30;79.60;;;;;;5084019;28;20020;-84
2021/05/10 10:13:38;;;;;;;7.60;5.70;;;20.40;79.40;;;;;;5088707;28;20016;-78
2021/05/10 10:16:09;;;;;;;7.03;5.82;;;20.50;79.30;;;;;;5085963;28;20020;-80
2021/05/10 10:18:40;;;;;;;7.40;6.05;;;20.50;79.00;;;;;;5092082;28;20031;-82
2021/05/10 10:21:11;;;;;;;8.63;6.50;;;20.60;78.90;;;;;;5085793;28;20052;-82
2021/05/10 10:23:38;;;;;;;7.90;6.78;;;20.60;78.60;;;;;;5086011;28;20020;-75
2021/05/10 10:26:14;;;;;;;8.07;5.95;;;20.70;78.50;;;;;;5081444;28;20031;-77
2021/05/10 10:28:41;;;;;;;8.43;7.47;;;20.70;78.20;;;;;;5081887;28;20060;-74
2021/05/10 10:31:20;;;;;;;7.70;6.45;;;20.80;77.90;;;;;;5070456;28;20040;-76
2021/05/10 10:33:53;;;;;;;7.07;6.20;;;20.80;77.60;;;;;;5089088;28;20031;-84
2021/05/10 10:36:26;;;;;;;7.00;6.30;;;20.90;77.50;;;;;;5084057;28;20517;-72
2021/05/10 10:39:12;;;;;;;7.22;6.45;;;20.90;77.30;;;;;;5088734;28;20508;-78
2021/05/10 10:41:57;;;;;;;7.13;6.53;;;21.00;77.20;;;;;;5089578;28;20111;-77
2021/05/10 10:45:12;;;;;;;9.20;7.40;;;21.00;76.90;;;;;;5086349;28;20159;-76
2021/05/10 10:48:21;;;;;;;7.97;7.18;;;21.10;76.80;;;;;;5091238;28;20054;-79
2021/05/10 10:51:39;;;;;;;10.70;8.25;;;21.20;76.60;;;;;;5088684;28;20040;-81
2021/05/10 10:54:45;;;;;;;10.25;7.05;;;21.20;76.20;;;;;;5088831;28;20012;-81
2021/05/10 10:58:08;;;;;;;10.60;6.68;;;21.30;76.10;;;;;;5087770;28;20119;-84
2021/05/10 11:00:56;;;;;;;8.88;7.43;;;21.30;75.90;;;;;;5086740;28;20028;-84
2021/05/10 11:04:03;;;;;;;6.38;5.68;;;21.30;75.70;;;;;;5086746;28;20475;-72
2021/05/10 11:07:27;;;;;;;7.65;5.88;;;21.40;75.60;;;;;;5086574;28;20035;-83
2021/05/10 11:10:33;;;;;;;7.28;5.35;;;21.50;75.60;;;;;;5085391;28;20387;-76
2021/05/10 11:13:29;;;;;;;7.22;6.07;;;21.50;75.50;;;;;;5087726;28;20115;-78
2021/05/10 11:16:30;;;;;;;7.78;5.43;;;21.60;75.20;;;;;;5087247;28;20103;-79
2021/05/10 11:19:45;;;;;;;8.88;5.32;;;21.70;75.10;;;;;;5081811;28;20153;-79
2021/05/10 11:23:10;;;;;;;6.45;4.60;;;21.70;74.80;;;;;;5082491;28;20480;-79
2021/05/10 11:26:25;;;;;;;6.38;5.40;;;21.80;74.30;;;;;;5077676;28;20044;-76
2021/05/10 11:29:26;;;;;;;11.68;6.18;;;21.90;74.00;;;;;;5081380;28;20188;-81
2021/05/10 11:32:18;;;;;;;6.88;5.00;;;21.90;73.70;;;;;;5086150;28;20081;-83
2021/05/10 11:35:43;;;;;;;8.05;4.35;;;22.00;74.20;;;;;;5084152;28;20047;-72
2021/05/10 11:38:51;;;;;;;9.30;6.40;;;22.00;73.40;;;;;;5084468;28;20105;-84
2021/05/10 11:42:00;;;;;;;7.97;4.85;;;22.10;73.10;;;;;;5084362;28;20112;-77
2021/05/10 11:45:06;;;;;;;10.50;6.13;;;22.10;72.70;;;;;;5087548;28;20134;-82
2021/05/10 11:48:12;;;;;;;8.48;6.32;;;22.20;72.60;;;;;;5083061;28;20029;-78
2021/05/10 11:51:24;;;;;;;6.80;5.68;;;22.20;72.60;;;;;;5082030;28;20016;-77
2021/05/10 11:54:36;;;;;;;9.75;7.05;;;22.20;72.30;;;;;;5077023;28;20032;-82
2021/05/10 11:57:55;;;;;;;8.32;6.53;;;22.20;72.10;;;;;;5080909;28;20098;-80
2021/05/10 12:01:01;;;;;;;9.63;6.70;;;22.20;72.10;;;;;;5078220;28;20031;-84
2021/05/10 12:03:47;;;;;;;;;;;22.20;72.20;;;;;;5080746;28;20036;-80
2021/05/10 12:07:13;;;;;;;8.57;7.15;;;22.20;72.10;;;;;;5081170;28;20310;-81
2021/05/10 12:10:17;;;;;;;10.07;6.88;;;22.20;72.00;;;;;;5079870;28;20051;-81
2021/05/10 12:13:27;;;;;;;11.82;8.50;;;22.20;71.80;;;;;;5079235;28;20029;-73
2021/05/10 12:16:33;;;;;;;10.95;7.88;;;22.20;71.70;;;;;;5078478;28;20024;-79
2021/05/10 12:19:39;;;;;;;11.82;8.43;;;22.20;71.70;;;;;;5081225;28;20103;-81
2021/05/10 12:22:45;;;;;;;8.10;6.85;;;22.30;71.80;;;;;;5079404;28;20020;-76
2021/05/10 12:25:17;;;;;;;10.30;7.60;;;22.30;71.70;;;;;;5081665;28;20028;-79
2021/05/10 12:28:08;;;;;;;10.32;9.25;;;22.30;71.70;;;;;;5082107;28;20028;-84
2021/05/10 12:30:45;;;;;;;12.40;8.90;;;22.30;71.60;;;;;;5078212;28;20069;-80
2021/05/10 12:33:51;;;;;;;11.52;8.23;;;22.30;71.60;;;;;;5082926;28;20051;-77
2021/05/10 12:36:57;;;;;;;9.25;7.85;;;22.30;71.60;;;;;;5082267;28;20048;-80
2021/05/10 12:40:03;;;;;;;11.25;8.65;;;22.40;71.70;;;;;;5082471;28;20071;-82
2021/05/10 12:43:21;;;;;;;12.18;8.85;;;22.40;71.30;;;;;;5070231;28;20021;-73
2021/05/10 12:46:28;;;;;;;13.05;7.80;;;22.40;71.40;;;;;;5085911;28;20050;-81
2021/05/10 12:49:43;;;;;;;11.43;8.50;;;22.40;71.50;;;;;;5089304;28;20051;-80
2021/05/10 12:52:50;;;;;;;9.93;6.25;;;22.50;71.50;;;;;;5083523;28;20072;-82
2021/05/10 12:55:59;;;;;;;18.40;7.53;;;22.50;71.30;;;;;;5081697;28;20028;-78
2021/05/10 12:59:08;;;;;;;8.32;6.63;;;22.50;71.30;;;;;;5088605;28;20041;-84
2021/05/10 13:02:14;;;;;;;8.55;6.35;;;22.50;71.20;;;;;;5088990;28;20495;-72
2021/05/10 13:05:26;;;;;;;10.20;6.85;;;22.60;71.20;;;;;;5085699;28;20085;-75
2021/05/10 13:08:32;;;;;;;12.10;6.82;;;22.60;71.10;;;;;;5087830;28;20032;-79
2021/05/10 13:11:44;;;;;;;12.80;6.75;;;22.70;71.00;;;;;;5087147;28;20028;-79
2021/05/10 13:14:56;;;;;;;9.57;6.90;;;22.70;70.90;;;;;;5086204;28;20094;-80
2021/05/10 13:21:45;;;;;;;8.93;6.32;;;22.70;70.60;;;;;;5085628;28;20035;-81
2021/05/10 13:31:42;;;;;;;13.18;5.35;;;22.80;70.30;;;;;;5083079;28;20058;-78
2021/05/10 13:35:07;;;;;;;6.35;4.88;;;22.80;70.30;;;;;;5086878;28;20020;-81
2021/05/10 13:38:19;;;;;;;5.78;4.53;;;22.80;70.30;;;;;;5088927;28;20026;-82
2021/05/10 13:41:26;;;;;;;11.77;5.75;;;22.80;70.30;;;;;;5090332;28;20024;-76
2021/05/10 13:44:13;;;;;;;;;;;22.70;70.30;;;;;;5089862;28;20074;-80
2021/05/10 13:47:19;;;;;;;8.93;4.47;;;22.70;70.40;;;;;;5090311;28;19915;-74
2021/05/10 13:50:25;;;;;;;6.38;3.92;;;22.70;70.30;;;;;;5091269;28;20031;-82
2021/05/10 13:53:11;;;;;;;;;;;22.70;70.60;;;;;;5087227;28;20012;-79
2021/05/10 13:56:17;;;;;;;5.22;3.90;;;22.70;70.30;;;;;;5088527;28;20314;-79
2021/05/10 13:59:23;;;;;;;7.75;4.22;;;22.60;70.30;;;;;;5089482;28;20024;-79
2021/05/10 14:02:29;;;;;;;6.90;3.97;;;22.60;70.30;;;;;;5091985;28;20020;-75
2021/05/10 14:05:35;;;;;;;8.32;4.57;;;22.50;70.50;;;;;;5072494;28;20067;-78
2021/05/10 14:08:21;;;;;;;;;;;22.50;70.70;;;;;;5092518;28;20020;-75
2021/05/10 14:11:28;;;;;;;7.93;4.47;;;22.50;70.80;;;;;;5086473;28;20409;-86
2021/05/10 14:14:34;;;;;;;5.82;3.88;;;22.40;70.80;;;;;;5089891;28;20425;-75
2021/05/10 14:17:41;;;;;;;10.60;4.22;;;22.40;71.00;;;;;;5090039;28;20023;-73
2021/05/10 14:24:13;;;;;;;8.80;4.05;;;22.40;71.20;;;;;;5088011;28;20107;-81